createdAt,value
2022-12-15T00:01:30.536Z,6.81
2022-12-15T00:03:58.214Z,6.76
2022-12-15T00:06:24.684Z,6.70
2022-12-15T00:08:51.120Z,6.68
2022-12-15T00:11:17.541Z,6.68
2022-12-15T00:13:44.483Z,6.63
2022-12-15T00:16:11.110Z,6.62
2022-12-15T00:18:37.560Z,6.64
2022-12-15T00:21:04.281Z,6.63
2022-12-15T00:23:32.176Z,6.66
2022-12-15T00:25:59.442Z,6.62
2022-12-15T00:28:26.027Z,6.63
2022-12-15T00:30:54.033Z,6.62
2022-12-15T00:33:24.237Z,6.66
2022-12-15T00:35:50.842Z,6.65
2022-12-15T00:38:17.460Z,6.74
2022-12-15T00:40:44.314Z,6.66
2022-12-15T00:43:11.692Z,6.72
2022-12-15T00:45:38.316Z,6.69
2022-12-15T00:48:04.754Z,6.71
2022-12-15T00:50:31.163Z,6.72
2022-12-15T00:52:57.645Z,6.74
2022-12-15T00:55:24.851Z,6.78
2022-12-15T00:57:52.452Z,6.87
2022-12-15T01:00:19.050Z,6.98
2022-12-15T01:02:45.841Z,7.01
2022-12-15T01:05:13.231Z,7.09
2022-12-15T01:07:39.806Z,7.13
2022-12-15T01:10:06.253Z,7.41
2022-12-15T01:12:32.676Z,7.33
2022-12-15T01:14:59.109Z,7.25
2022-12-15T01:17:25.569Z,7.21
2022-12-15T01:19:51.994Z,7.19
2022-12-15T01:22:18.452Z,7.14
2022-12-15T01:24:47.699Z,7.17
2022-12-15T01:27:14.565Z,7.10
2022-12-15T01:29:41.192Z,7.08
2022-12-15T01:32:07.652Z,7.03
2022-12-15T01:34:34.338Z,7.00
2022-12-15T01:37:02.929Z,7.01
2022-12-15T01:39:29.525Z,6.96
2022-12-15T01:41:56.124Z,6.96
2022-12-15T01:44:22.724Z,6.91
2022-12-15T01:46:49.349Z,6.87
2022-12-15T01:49:15.995Z,6.85
2022-12-15T01:51:42.473Z,6.90
2022-12-15T01:54:09.177Z,6.88
2022-12-15T01:56:37.920Z,6.87
2022-12-15T01:59:05.395Z,6.88
2022-12-15T02:01:31.919Z,6.95
2022-12-15T02:03:58.566Z,6.93
2022-12-15T02:06:25.179Z,6.93
2022-12-15T02:08:51.590Z,6.92
2022-12-15T02:11:18.004Z,6.88
2022-12-15T02:13:44.394Z,6.90
2022-12-15T02:16:10.844Z,6.88
2022-12-15T02:18:37.328Z,6.91
2022-12-15T02:21:03.894Z,6.95
2022-12-15T02:23:30.748Z,6.97
2022-12-15T02:25:57.892Z,6.99
2022-12-15T02:28:24.501Z,7.02
2022-12-15T02:30:53.619Z,7.07
2022-12-15T02:33:20.685Z,7.11
2022-12-15T02:35:48.260Z,7.19
2022-12-15T02:38:14.667Z,7.22
2022-12-15T02:40:41.114Z,7.22
2022-12-15T02:43:07.522Z,7.22
2022-12-15T02:45:34.833Z,7.20
2022-12-15T02:48:01.417Z,7.22
2022-12-15T02:50:27.853Z,7.23
2022-12-15T02:52:54.487Z,7.22
2022-12-15T02:55:20.925Z,7.20
2022-12-15T02:57:47.366Z,7.20
2022-12-15T03:00:14.248Z,7.17
2022-12-15T03:02:40.816Z,7.15
2022-12-15T03:05:07.466Z,7.15
2022-12-15T03:07:34.029Z,7.14
2022-12-15T03:10:00.462Z,7.06
2022-12-15T03:12:27.285Z,7.04
2022-12-15T03:14:54.851Z,7.04
2022-12-15T03:17:21.443Z,7.05
2022-12-15T03:19:49.892Z,6.96
2022-12-15T03:22:17.641Z,6.93
2022-12-15T03:24:44.051Z,6.90
2022-12-15T03:27:10.874Z,6.87
2022-12-15T03:29:37.462Z,6.89
2022-12-15T03:32:04.125Z,6.80
2022-12-15T03:34:31.657Z,6.74
2022-12-15T03:36:58.086Z,6.68
2022-12-15T03:39:24.565Z,6.64
2022-12-15T03:41:50.991Z,6.64
2022-12-15T03:44:18.024Z,6.63
2022-12-15T03:46:45.615Z,6.62
2022-12-15T03:49:13.211Z,6.61
2022-12-15T03:51:39.708Z,6.61
2022-12-15T03:54:06.360Z,6.61
2022-12-15T03:56:32.775Z,6.62
2022-12-15T03:58:59.585Z,6.61
2022-12-15T04:01:27.236Z,6.63
2022-12-15T04:04:00.061Z,6.66
2022-12-15T04:06:27.145Z,6.68
2022-12-15T04:08:53.976Z,6.67
2022-12-15T04:11:20.559Z,6.70
2022-12-15T04:13:47.142Z,6.66
2022-12-15T04:16:19.522Z,6.68
2022-12-15T04:18:46.657Z,6.71
2022-12-15T04:21:13.937Z,6.64
2022-12-15T04:23:40.380Z,6.64
2022-12-15T04:26:07.124Z,6.61
2022-12-15T04:28:33.707Z,6.62
2022-12-15T04:31:00.331Z,6.63
2022-12-15T04:33:30.752Z,6.68
2022-12-15T04:35:58.521Z,6.65
2022-12-15T04:38:25.114Z,6.65
2022-12-15T04:40:51.716Z,6.65
2022-12-15T04:43:18.149Z,6.61
2022-12-15T04:45:44.600Z,6.56
2022-12-15T04:48:11.097Z,6.53
2022-12-15T04:50:37.493Z,6.46
2022-12-15T04:53:03.923Z,6.41
2022-12-15T04:55:30.356Z,6.39
2022-12-15T04:57:56.798Z,6.41
2022-12-15T05:00:23.227Z,6.29
2022-12-15T05:02:49.913Z,6.21
2022-12-15T05:05:16.412Z,6.15
2022-12-15T05:07:42.793Z,6.12
2022-12-15T05:10:14.607Z,6.08
2022-12-15T05:12:41.469Z,6.10
2022-12-15T05:15:07.914Z,6.12
2022-12-15T05:17:36.977Z,6.10
2022-12-15T05:20:07.637Z,6.05
2022-12-15T05:22:34.057Z,5.99
2022-12-15T05:25:00.467Z,5.89
2022-12-15T05:27:26.858Z,5.82
2022-12-15T05:29:53.273Z,5.89
2022-12-15T05:32:19.718Z,5.66
2022-12-15T05:34:46.143Z,5.60
2022-12-15T05:37:12.549Z,5.52
2022-12-15T05:39:38.987Z,5.52
2022-12-15T05:42:05.494Z,5.48
2022-12-15T05:44:31.877Z,5.38
2022-12-15T05:46:58.267Z,5.34
2022-12-15T05:49:24.698Z,5.28
2022-12-15T05:51:51.162Z,5.25
2022-12-15T05:54:17.589Z,5.25
2022-12-15T05:56:44.023Z,5.22
2022-12-15T05:59:10.452Z,5.24
2022-12-15T06:01:36.996Z,5.19
2022-12-15T06:04:03.457Z,5.25
2022-12-15T06:06:29.887Z,5.12
2022-12-15T06:08:56.315Z,5.07
2022-12-15T06:11:22.829Z,5.06
2022-12-15T06:13:49.352Z,5.03
2022-12-15T06:16:15.812Z,5.02
2022-12-15T06:18:42.258Z,5.01
2022-12-15T06:21:08.668Z,5.06
2022-12-15T06:23:35.150Z,5.10
2022-12-15T06:26:01.640Z,5.11
2022-12-15T06:28:28.045Z,5.22
2022-12-15T06:30:54.502Z,5.28
2022-12-15T06:33:20.990Z,5.28
2022-12-15T06:35:47.426Z,5.40
2022-12-15T06:38:13.856Z,5.48
2022-12-15T06:40:40.325Z,5.42
2022-12-15T06:43:06.744Z,5.40
2022-12-15T06:45:33.170Z,5.41
2022-12-15T06:48:01.522Z,5.50
2022-12-15T06:50:28.370Z,5.58
2022-12-15T06:52:54.824Z,5.60
2022-12-15T06:55:21.238Z,5.68
2022-12-15T06:57:47.687Z,5.83
2022-12-15T07:00:14.150Z,5.89
2022-12-15T07:02:40.747Z,5.70
2022-12-15T07:05:07.484Z,5.73
2022-12-15T07:07:34.170Z,5.91
2022-12-15T07:10:00.639Z,6.03
2022-12-15T07:12:27.090Z,6.04
2022-12-15T07:14:53.873Z,5.87
2022-12-15T07:17:20.319Z,5.76
2022-12-15T07:19:46.753Z,5.68
2022-12-15T07:22:13.160Z,5.71
2022-12-15T07:24:39.694Z,5.74
2022-12-15T07:27:06.109Z,5.78
2022-12-15T07:29:32.506Z,5.82
2022-12-15T07:31:58.992Z,5.91
2022-12-15T07:34:25.449Z,5.99
2022-12-15T07:36:52.858Z,6.08
2022-12-15T07:39:19.467Z,6.07
2022-12-15T07:41:46.033Z,6.23
2022-12-15T07:44:12.448Z,6.26
2022-12-15T07:46:38.977Z,6.19
2022-12-15T07:49:05.473Z,5.91
2022-12-15T07:51:31.913Z,5.85
2022-12-15T07:53:58.330Z,5.89
2022-12-15T07:56:24.748Z,5.93
2022-12-15T07:58:51.237Z,5.97
2022-12-15T08:01:17.764Z,6.08
2022-12-15T08:03:44.312Z,6.13
2022-12-15T08:06:10.931Z,6.17
2022-12-15T08:08:37.415Z,6.20
2022-12-15T08:11:03.868Z,6.26
2022-12-15T08:14:01.281Z,6.30
2022-12-15T08:16:16.770Z,6.32
2022-12-15T08:18:43.213Z,6.32
2022-12-15T08:21:09.631Z,6.34
2022-12-15T08:23:36.127Z,6.32
2022-12-15T08:26:02.660Z,6.32
2022-12-15T08:28:29.132Z,6.31
2022-12-15T08:30:55.588Z,6.29
2022-12-15T08:33:22.037Z,6.25
2022-12-15T08:35:56.923Z,6.22
2022-12-15T08:38:23.830Z,6.24
2022-12-15T08:40:50.270Z,6.23
2022-12-15T08:43:16.724Z,6.19
2022-12-15T08:45:43.249Z,6.19
2022-12-15T08:48:09.734Z,6.15
2022-12-15T08:50:36.175Z,6.18
2022-12-15T08:53:29.495Z,6.14
2022-12-15T08:55:49.104Z,6.11
2022-12-15T08:58:15.531Z,6.12
2022-12-15T09:00:41.946Z,6.10
2022-12-15T09:03:08.387Z,6.07
2022-12-15T09:05:34.870Z,6.08
2022-12-15T09:08:06.389Z,6.08
2022-12-15T09:10:33.223Z,6.04
2022-12-15T09:12:59.694Z,6.06
2022-12-15T09:15:45.455Z,6.09
2022-12-15T09:18:12.513Z,6.07
2022-12-15T09:20:38.941Z,6.05
2022-12-15T09:23:05.409Z,6.03
2022-12-15T09:25:31.847Z,6.02
2022-12-15T09:27:58.263Z,5.95
2022-12-15T09:30:24.782Z,5.95
2022-12-15T09:32:51.304Z,5.88
2022-12-15T09:35:17.751Z,5.85
2022-12-15T09:37:48.493Z,5.84
2022-12-15T09:40:18.087Z,5.83
2022-12-15T09:42:44.983Z,5.78
2022-12-15T09:45:11.468Z,5.77
2022-12-15T09:47:38.179Z,5.77
2022-12-15T09:50:04.769Z,5.77
2022-12-15T09:52:32.369Z,5.77
2022-12-15T09:54:59.077Z,5.76
2022-12-15T09:57:26.604Z,5.76
2022-12-15T09:59:54.197Z,5.75
2022-12-15T10:02:20.899Z,5.75
2022-12-15T10:04:50.730Z,5.72
2022-12-15T10:07:18.014Z,5.69
2022-12-15T10:09:44.426Z,5.68
2022-12-15T10:12:11.558Z,5.67
2022-12-15T10:14:38.044Z,5.66
2022-12-15T10:17:04.493Z,5.62
2022-12-15T10:19:30.956Z,5.61
2022-12-15T10:21:57.552Z,5.61
2022-12-15T10:25:07.400Z,5.63
2022-12-15T10:27:10.949Z,5.62
2022-12-15T10:29:37.896Z,5.62
2022-12-15T10:32:04.339Z,5.64
2022-12-15T10:34:30.841Z,5.63
2022-12-15T10:36:57.279Z,5.62
2022-12-15T10:39:23.719Z,5.62
2022-12-15T10:41:50.156Z,5.63
2022-12-15T10:44:16.580Z,5.63
2022-12-15T10:46:43.171Z,5.62
2022-12-15T10:49:09.599Z,5.63
2022-12-15T10:51:36.046Z,5.65
2022-12-15T10:54:02.536Z,5.69
2022-12-15T10:56:33.317Z,5.67
2022-12-15T10:59:00.469Z,5.72
2022-12-15T11:01:27.537Z,5.74
2022-12-15T11:03:55.286Z,5.77
2022-12-15T11:06:22.663Z,5.80
2022-12-15T11:08:49.354Z,5.82
2022-12-15T11:11:16.821Z,5.84
2022-12-15T11:13:43.832Z,5.86
2022-12-15T11:16:11.042Z,5.83
2022-12-15T11:18:37.632Z,5.85
2022-12-15T11:21:05.250Z,5.84
2022-12-15T11:23:33.276Z,5.82
2022-12-15T11:26:04.907Z,5.81
2022-12-15T11:28:33.419Z,5.81
2022-12-15T11:30:59.878Z,5.80
2022-12-15T11:33:26.320Z,5.79
2022-12-15T11:35:52.908Z,5.80
2022-12-15T11:38:19.568Z,5.70
2022-12-15T11:40:46.023Z,5.75
2022-12-15T11:43:12.469Z,5.72
2022-12-15T11:45:39.247Z,5.73
2022-12-15T11:48:05.837Z,5.72
2022-12-15T11:50:32.436Z,5.73
2022-12-15T11:52:59.005Z,5.71
2022-12-15T11:55:31.045Z,5.71
2022-12-15T11:58:00.754Z,5.67
2022-12-15T12:00:27.264Z,5.68
2022-12-15T12:02:53.711Z,5.64
2022-12-15T12:05:21.034Z,5.63
2022-12-15T12:07:49.063Z,5.65
2022-12-15T12:10:15.571Z,5.67
2022-12-15T12:12:42.107Z,5.68
2022-12-15T12:15:10.435Z,5.71
2022-12-15T12:17:37.020Z,5.76
2022-12-15T12:20:09.509Z,5.70
2022-12-15T12:22:38.227Z,5.63
2022-12-15T12:25:04.632Z,5.64
2022-12-15T12:27:31.406Z,5.60
2022-12-15T12:29:58.013Z,5.59
2022-12-15T12:32:25.608Z,5.58
2022-12-15T12:34:52.197Z,5.54
2022-12-15T12:37:38.668Z,5.54
2022-12-15T12:40:05.105Z,5.52
2022-12-15T12:42:31.498Z,5.51
2022-12-15T12:44:57.951Z,5.52
2022-12-15T12:47:25.425Z,5.53
2022-12-15T12:49:51.875Z,5.51
2022-12-15T12:52:18.363Z,5.49
2022-12-15T12:54:46.040Z,5.45
2022-12-15T12:57:15.639Z,5.50
2022-12-15T13:08:11.355Z,5.41
2022-12-15T13:10:58.562Z,5.39
2022-12-15T13:13:30.249Z,5.36
2022-12-15T13:15:58.475Z,5.34
2022-12-15T13:18:27.376Z,5.35
2022-12-15T13:20:56.592Z,5.33
2022-12-15T13:23:26.009Z,5.32
2022-12-15T13:25:56.419Z,5.30
2022-12-15T13:28:25.470Z,5.27
2022-12-15T13:30:54.690Z,5.21
2022-12-15T13:33:23.678Z,5.19
2022-12-15T13:35:51.264Z,5.12
2022-12-15T13:38:20.869Z,5.07
2022-12-15T13:40:50.559Z,5.05
2022-12-15T13:43:19.052Z,5.06
2022-12-15T13:45:48.894Z,5.07
2022-12-15T13:48:18.366Z,5.06
2022-12-15T13:50:51.104Z,5.06
2022-12-15T13:53:19.749Z,5.08
2022-12-15T13:55:51.104Z,5.12
2022-12-15T13:58:17.779Z,5.16
2022-12-15T14:00:46.365Z,5.18
2022-12-15T14:03:16.028Z,5.22
2022-12-15T14:05:43.572Z,5.25
2022-12-15T14:08:12.198Z,5.26
2022-12-15T14:10:39.794Z,5.29
2022-12-15T14:13:15.874Z,5.32
2022-12-15T14:15:44.056Z,5.29
2022-12-15T14:18:12.674Z,5.31
2022-12-15T14:20:40.259Z,5.31
2022-12-15T14:23:06.857Z,5.27
2022-12-15T14:25:33.449Z,5.25
2022-12-15T14:28:01.050Z,5.20
2022-12-15T14:30:27.538Z,5.17
2022-12-15T14:32:55.219Z,5.16
2022-12-15T14:35:21.810Z,5.12
2022-12-15T14:37:48.467Z,5.08
2022-12-15T14:40:16.064Z,5.07
2022-12-15T14:42:43.640Z,5.06
2022-12-15T14:45:10.214Z,5.17
2022-12-15T14:47:37.813Z,5.10
2022-12-15T14:50:05.395Z,4.97
2022-12-15T14:52:31.979Z,4.98
2022-12-15T14:54:59.589Z,5.00
2022-12-15T14:57:26.179Z,5.06
2022-12-15T14:59:52.763Z,5.13
2022-12-15T15:02:20.435Z,5.18
2022-12-15T15:04:47.940Z,5.19
2022-12-15T15:07:14.402Z,5.18
2022-12-15T15:09:40.960Z,5.15
2022-12-15T15:12:07.423Z,5.14
2022-12-15T15:14:34.327Z,5.09
2022-12-15T15:17:03.026Z,5.06
2022-12-15T15:19:32.351Z,5.01
2022-12-15T15:22:00.148Z,5.03
2022-12-15T15:24:27.743Z,5.00
2022-12-15T15:26:54.381Z,5.04
2022-12-15T15:29:21.202Z,5.09
2022-12-15T15:31:47.666Z,4.99
2022-12-15T15:34:14.138Z,4.95
2022-12-15T15:36:40.791Z,4.92
2022-12-15T15:39:08.293Z,4.90
2022-12-15T15:41:35.888Z,4.88
2022-12-15T15:44:02.479Z,4.85
2022-12-15T15:46:29.140Z,4.83
2022-12-15T15:48:56.652Z,4.83
2022-12-15T15:51:23.245Z,4.84
2022-12-15T15:53:50.823Z,4.84
2022-12-15T15:56:17.407Z,4.86
2022-12-15T15:58:43.921Z,4.83
2022-12-15T16:01:13.264Z,4.75
2022-12-15T16:03:41.295Z,4.75
2022-12-15T16:06:08.368Z,4.76
2022-12-15T16:08:35.223Z,4.78
2022-12-15T16:11:01.994Z,4.73
2022-12-15T16:13:28.522Z,4.73
2022-12-15T16:15:55.017Z,4.73
2022-12-15T16:18:21.471Z,4.71
2022-12-15T16:20:47.899Z,4.68
2022-12-15T16:23:14.324Z,4.64
2022-12-15T16:25:48.452Z,4.61
2022-12-15T16:28:15.082Z,4.61
2022-12-15T16:30:41.619Z,4.55
2022-12-15T16:33:08.111Z,4.55
2022-12-15T16:35:34.558Z,4.52
2022-12-15T16:38:00.987Z,4.52
2022-12-15T16:40:27.422Z,4.52
2022-12-15T16:42:53.831Z,4.51
2022-12-15T16:45:20.238Z,4.55
2022-12-15T16:47:46.650Z,4.61
2022-12-15T16:50:13.118Z,4.52
2022-12-15T16:52:39.527Z,4.66
2022-12-15T16:55:05.938Z,4.57
2022-12-15T16:57:32.322Z,4.53
2022-12-15T16:59:58.698Z,4.53
2022-12-15T17:02:27.712Z,4.49
2022-12-15T17:04:54.371Z,4.54
2022-12-15T17:07:21.190Z,4.57
2022-12-15T17:09:47.647Z,4.48
2022-12-15T17:12:14.058Z,4.39
2022-12-15T17:14:41.038Z,4.31
2022-12-15T17:17:07.810Z,4.29
2022-12-15T17:19:34.230Z,4.32
2022-12-15T17:22:00.646Z,4.33
2022-12-15T17:24:27.131Z,4.36
2022-12-15T17:26:53.579Z,4.39
2022-12-15T17:29:19.994Z,4.41
2022-12-15T17:31:46.489Z,4.42
2022-12-15T17:34:13.006Z,4.43
2022-12-15T17:36:39.501Z,4.42
2022-12-15T17:39:05.907Z,4.40
2022-12-15T17:44:36.179Z,4.37
2022-12-15T17:47:03.558Z,4.38
2022-12-15T17:49:35.106Z,4.39
2022-12-15T17:52:02.351Z,4.39
2022-12-15T17:54:28.779Z,4.41
2022-12-15T17:56:55.206Z,4.40
2022-12-15T17:59:21.643Z,4.44
2022-12-15T18:01:48.169Z,4.46
2022-12-15T18:04:14.733Z,4.52
2022-12-15T18:06:41.214Z,4.50
2022-12-15T18:09:07.650Z,4.46
2022-12-15T18:11:34.090Z,4.48
2022-12-15T18:14:00.531Z,4.42
2022-12-15T18:16:27.057Z,4.43
2022-12-15T18:18:53.573Z,4.46
2022-12-15T18:21:19.986Z,4.47
2022-12-15T18:23:46.423Z,4.49
2022-12-15T18:26:12.822Z,4.50
2022-12-15T18:28:39.238Z,4.54
2022-12-15T18:31:05.679Z,4.56
2022-12-15T18:33:32.475Z,4.57
2022-12-15T18:35:59.143Z,4.64
2022-12-15T18:38:25.551Z,4.63
2022-12-15T18:40:51.973Z,4.56
2022-12-15T18:43:18.496Z,4.57
2022-12-15T18:45:44.891Z,4.57
2022-12-15T18:48:11.332Z,4.59
2022-12-15T18:50:37.755Z,4.61
2022-12-15T18:53:04.239Z,4.63
2022-12-15T18:55:30.684Z,4.62
2022-12-15T18:57:57.103Z,4.65
2022-12-15T19:00:23.533Z,4.61
2022-12-15T19:02:50.084Z,4.64
2022-12-15T19:05:16.562Z,4.61
2022-12-15T19:07:42.972Z,4.62
2022-12-15T19:10:09.415Z,4.65
2022-12-15T19:12:35.881Z,4.62
2022-12-15T19:15:02.392Z,4.65
2022-12-15T19:17:28.816Z,4.61
2022-12-15T19:19:55.228Z,4.61
2022-12-15T19:22:21.658Z,4.57
2022-12-15T19:24:48.231Z,4.54
2022-12-15T19:27:14.618Z,4.51
2022-12-15T19:29:41.038Z,4.47
2022-12-15T19:32:07.449Z,4.46
2022-12-15T19:34:33.846Z,4.41
2022-12-15T19:37:00.253Z,4.40
2022-12-15T19:39:26.682Z,4.34
2022-12-15T19:41:53.105Z,4.36
2022-12-15T19:44:21.356Z,4.32
2022-12-15T19:46:47.782Z,4.34
2022-12-15T19:49:14.235Z,4.33
2022-12-15T19:51:40.678Z,4.32
2022-12-15T19:54:07.136Z,4.30
2022-12-15T19:56:33.579Z,4.30
2022-12-15T19:58:59.972Z,4.29
2022-12-15T20:01:26.475Z,4.31
2022-12-15T20:03:52.989Z,4.34
2022-12-15T20:06:19.394Z,4.33
2022-12-15T20:08:45.809Z,4.33
2022-12-15T20:11:12.250Z,4.32
2022-12-15T20:13:38.670Z,4.32
2022-12-15T20:16:05.183Z,4.35
2022-12-15T20:18:31.960Z,4.35
2022-12-15T20:20:58.700Z,4.31
2022-12-15T20:23:25.206Z,4.32
2022-12-15T20:25:51.646Z,4.34
2022-12-15T20:28:18.027Z,4.34
2022-12-15T20:30:44.463Z,4.33
2022-12-15T20:33:11.147Z,4.34
2022-12-15T20:35:37.543Z,4.31
2022-12-15T20:38:03.996Z,4.33
2022-12-15T20:40:30.398Z,4.31
2022-12-15T20:42:56.820Z,4.35
2022-12-15T20:45:23.249Z,4.34
2022-12-15T20:47:49.654Z,4.33
2022-12-15T20:50:16.237Z,4.25
2022-12-15T20:52:42.669Z,4.30
2022-12-15T20:55:09.093Z,4.16
2022-12-15T20:57:35.491Z,4.11
2022-12-15T21:00:01.923Z,4.14
2022-12-15T21:02:28.499Z,4.11
2022-12-15T21:04:54.959Z,4.08
2022-12-15T21:07:21.460Z,4.08
2022-12-15T21:09:47.871Z,4.09
2022-12-15T21:12:14.274Z,4.08
2022-12-15T21:14:40.682Z,4.11
2022-12-15T21:17:07.241Z,4.12
2022-12-15T21:19:33.728Z,4.14
2022-12-15T21:22:00.157Z,4.15
2022-12-15T21:24:26.590Z,4.15
2022-12-15T21:26:53.006Z,4.14
2022-12-15T21:29:20.128Z,4.09
2022-12-15T21:31:46.508Z,4.09
2022-12-15T21:34:12.952Z,4.08
2022-12-15T21:36:39.455Z,4.11
2022-12-15T21:39:05.839Z,4.12
2022-12-15T21:41:32.222Z,4.14
2022-12-15T21:43:58.644Z,4.14
2022-12-15T21:46:27.943Z,4.16
2022-12-15T21:48:54.645Z,4.15
2022-12-15T21:51:21.111Z,4.16
2022-12-15T21:53:47.506Z,4.17
2022-12-15T21:56:13.938Z,4.16
2022-12-15T21:58:40.331Z,4.18
2022-12-15T22:01:06.757Z,4.21
2022-12-15T22:03:33.198Z,4.22
2022-12-15T22:05:59.669Z,4.21
2022-12-15T22:08:26.106Z,4.18
2022-12-15T22:10:52.548Z,4.14
2022-12-15T22:13:21.268Z,4.13
2022-12-15T22:15:47.658Z,4.11
2022-12-15T22:18:14.120Z,4.11
2022-12-15T22:20:40.525Z,4.11
2022-12-15T22:23:06.966Z,4.09
2022-12-15T22:25:33.385Z,4.08
2022-12-15T22:27:59.791Z,4.04
2022-12-15T22:30:26.218Z,4.05
2022-12-15T22:32:52.631Z,4.02
2022-12-15T22:35:20.275Z,3.97
2022-12-15T22:37:46.690Z,3.93
2022-12-15T22:40:13.105Z,3.92
2022-12-15T22:42:39.543Z,3.95
2022-12-15T22:45:05.951Z,3.97
2022-12-15T22:47:32.369Z,3.92
2022-12-15T22:49:58.800Z,3.94
2022-12-15T22:52:25.216Z,3.98
2022-12-15T22:54:51.646Z,4.01
2022-12-15T22:57:18.310Z,4.04
2022-12-15T22:59:44.756Z,4.07
2022-12-15T23:02:11.150Z,4.11
2022-12-15T23:04:37.537Z,4.11
2022-12-15T23:07:03.967Z,4.14
2022-12-15T23:09:30.425Z,4.13
2022-12-15T23:11:56.844Z,4.16
2022-12-15T23:14:23.274Z,4.14
2022-12-15T23:16:49.681Z,4.14
2022-12-15T23:19:16.980Z,4.16
2022-12-15T23:21:43.403Z,4.16
2022-12-15T23:24:09.814Z,4.13
2022-12-15T23:26:36.266Z,4.13
2022-12-15T23:29:02.694Z,4.13
2022-12-15T23:31:29.186Z,4.15
2022-12-15T23:33:55.714Z,4.17
2022-12-15T23:36:22.131Z,4.18
2022-12-15T23:38:48.549Z,4.17
2022-12-15T23:41:15.050Z,4.20
2022-12-15T23:43:41.444Z,4.22
2022-12-15T23:46:08.373Z,4.20
2022-12-15T23:48:34.873Z,4.20
2022-12-15T23:51:01.297Z,4.21
2022-12-15T23:53:27.739Z,4.19
2022-12-15T23:55:54.173Z,4.23
2022-12-15T23:58:20.611Z,4.20
